Time;durP1;ratioP1;P1;durP2;ratioP2;P2;SDS_P1;SDS_P2;PMS_P1;PMS_P2;Temp;Humidity;BMP_temperature;BMP_pressure;BME280_temperature;BME280_humidity;BME280_pressure;Samples;Min_cycle;Max_cycle;Signal;HPM_P1;HPM_P2
2023/05/14 00:00:50;;;;;;;0.20;0.20;;;;;;;20.12;52.76;101470.81;5113468;28;20301;-41
2023/05/14 00:03:15;;;;;;;0.20;0.20;;;;;;;20.12;52.43;101473.59;5114203;28;20047;-42
2023/05/14 00:05:41;;;;;;;0.20;0.20;;;;;;;20.13;52.34;101469.72;5113212;28;20051;-41
2023/05/14 00:08:07;;;;;;;0.20;0.20;;;;;;;20.13;52.64;101471.66;5113405;28;20051;-42
2023/05/14 00:10:33;;;;;;;0.20;0.20;;;;;;;20.12;52.66;101467.19;5113370;28;20501;-43
2023/05/14 00:12:58;;;;;;;0.20;0.20;;;;;;;20.12;52.33;101472.72;5113658;28;20106;-41
2023/05/14 00:15:24;;;;;;;0.20;0.20;;;;;;;20.13;52.42;101475.25;5113714;28;20069;-43
2023/05/14 00:17:50;;;;;;;0.20;0.20;;;;;;;20.13;52.55;101471.66;5113422;28;20047;-44
2023/05/14 00:20:15;;;;;;;0.20;0.20;;;;;;;20.12;52.64;101473.59;5113476;28;20042;-41
2023/05/14 00:22:41;;;;;;;0.20;0.20;;;;;;;20.12;52.72;101476.34;5114175;28;20476;-42
2023/05/14 00:25:07;;;;;;;0.20;0.20;;;;;;;20.12;52.41;101473.59;5113840;27;20050;-42
2023/05/14 00:27:33;;;;;;;0.20;0.20;;;;;;;20.12;52.45;101470.81;5113166;28;20058;-42
2023/05/14 00:29:59;;;;;;;0.20;0.20;;;;;;;20.12;52.58;101470.81;5078065;28;20066;-41
2023/05/14 00:32:25;;;;;;;0.20;0.20;;;;;;;20.12;52.43;101472.72;5113880;27;20417;-44
2023/05/14 00:34:50;;;;;;;0.20;0.20;;;;;;;20.13;52.28;101471.66;5113935;28;20108;-42
2023/05/14 00:37:16;;;;;;;0.20;0.20;;;;;;;20.14;52.34;101465.00;5090860;28;20052;-41
2023/05/14 00:39:42;;;;;;;0.20;0.20;;;;;;;20.13;52.71;101466.94;5111809;27;20051;-42
2023/05/14 00:42:07;;;;;;;0.20;0.20;;;;;;;20.13;52.55;101460.59;5112990;28;20055;-40
2023/05/14 00:44:34;;;;;;;0.20;0.20;;;;;;;20.13;52.22;101458.66;5113771;28;20095;-42
2023/05/14 00:47:00;;;;;;;0.20;0.20;;;;;;;20.12;52.65;101457.00;5112505;27;20046;-42
2023/05/14 00:49:27;;;;;;;0.20;0.20;;;;;;;20.12;52.61;101450.63;5112152;28;20043;-41
2023/05/14 00:51:53;;;;;;;0.20;0.20;;;;;;;20.13;52.22;101449.53;5113387;28;20172;-41
2023/05/14 00:54:19;;;;;;;0.20;0.20;;;;;;;20.12;52.65;101445.94;5113410;28;20462;-43
2023/05/14 00:56:45;;;;;;;0.20;0.20;;;;;;;20.12;52.40;101453.38;5113000;28;20581;-43
2023/05/14 00:59:12;;;;;;;0.30;0.30;;;;;;;20.12;52.65;101448.72;5095188;28;20047;-42
2023/05/14 01:01:37;;;;;;;0.20;0.20;;;;;;;20.13;52.55;101441.22;5112643;28;20055;-41
2023/05/14 01:04:04;;;;;;;0.20;0.20;;;;;;;20.13;52.87;101444.81;5078284;28;20081;-45
2023/05/14 01:06:58;;;;;;;0.20;0.20;;;;;;;20.13;52.57;101444.00;5091177;28;20046;-41
2023/05/14 01:12:37;;;;;;;0.20;0.20;;;;;;;20.13;52.66;101430.19;5172758;27;20802;-42
2023/05/14 01:17:45;;;;;;;0.20;0.20;;;;;;;20.13;52.49;101413.59;5173117;27;20567;-41
2023/05/14 01:20:11;;;;;;;0.20;0.20;;;;;;;20.12;52.35;101418.28;5129436;27;20291;-40
2023/05/14 01:22:37;;;;;;;0.20;0.20;;;;;;;20.13;52.54;101408.06;5131226;27;20123;-42
2023/05/14 01:25:04;;;;;;;0.30;0.30;;;;;;;20.12;52.88;101415.53;5131451;27;20126;-40
2023/05/14 01:27:38;;;;;;;0.30;0.30;;;;;;;20.13;52.55;101416.34;5143932;27;20752;-40
2023/05/14 01:30:14;;;;;;;0.20;0.20;;;;;;;20.12;52.57;101421.06;5133248;27;20055;-40
2023/05/14 01:32:40;;;;;;;0.20;0.20;;;;;;;20.13;52.55;101419.13;5151895;27;20073;-41
2023/05/14 01:35:07;;;;;;;0.20;0.20;;;;;;;20.12;52.48;101417.44;5152225;27;20054;-42
2023/05/14 01:37:33;;;;;;;0.20;0.20;;;;;;;20.14;52.70;101418.00;5149750;27;20062;-41
2023/05/14 01:39:59;;;;;;;0.20;0.20;;;;;;;20.12;52.39;101421.06;5147694;27;20050;-41
2023/05/14 01:42:25;;;;;;;0.20;0.20;;;;;;;20.12;52.62;101412.75;5134649;27;20108;-40
2023/05/14 01:44:51;;;;;;;0.20;0.20;;;;;;;20.12;52.54;101414.66;5151225;27;20050;-43
2023/05/14 01:47:16;;;;;;;0.20;0.20;;;;;;;20.12;52.55;101410.00;5151404;27;20463;-40
2023/05/14 01:49:42;;;;;;;0.20;0.20;;;;;;;20.12;52.71;101421.06;5148192;27;20047;-42
2023/05/14 01:52:08;;;;;;;0.20;0.20;;;;;;;20.12;52.34;101421.06;5150548;27;20057;-43
2023/05/14 01:54:33;;;;;;;0.20;0.20;;;;;;;20.11;52.59;101422.13;5151291;27;20246;-41
2023/05/14 01:56:59;;;;;;;0.20;0.20;;;;;;;20.12;52.55;101422.97;5151059;27;20050;-41
2023/05/14 01:59:25;;;;;;;0.30;0.30;;;;;;;20.12;52.40;101418.28;5150304;27;20409;-42
2023/05/14 02:01:50;;;;;;;0.20;0.20;;;;;;;20.12;52.62;101426.59;5130244;27;20220;-42
2023/05/14 02:04:16;;;;;;;0.20;0.20;;;;;;;20.13;52.39;101424.66;5130682;27;20039;-41
2023/05/14 02:06:42;;;;;;;0.20;0.20;;;;;;;20.12;52.49;101420.19;5135395;27;20078;-43
2023/05/14 02:09:08;;;;;;;0.20;0.20;;;;;;;20.13;52.25;101421.88;5151954;27;20280;-41
2023/05/14 02:11:33;;;;;;;0.20;0.20;;;;;;;20.12;52.18;101421.06;5150728;27;20042;-43
2023/05/14 02:13:59;;;;;;;0.20;0.20;;;;;;;20.12;52.52;101420.19;5151331;27;20057;-41
2023/05/14 02:16:25;;;;;;;0.20;0.20;;;;;;;20.13;52.37;101417.19;5150773;27;20132;-42
2023/05/14 02:18:51;;;;;;;0.30;0.30;;;;;;;20.13;52.42;101425.47;5151332;27;20487;-42
2023/05/14 02:21:16;;;;;;;0.20;0.20;;;;;;;20.12;52.57;101418.28;5133389;27;20376;-40
2023/05/14 02:23:43;;;;;;;0.20;0.20;;;;;;;20.12;52.41;101412.75;5130356;27;20043;-44
2023/05/14 02:26:09;;;;;;;0.22;0.22;;;;;;;20.12;52.39;101417.44;5128970;27;20518;-41
2023/05/14 02:28:35;;;;;;;0.20;0.20;;;;;;;20.12;52.57;101410.00;5138367;27;20069;-43
2023/05/14 02:31:00;;;;;;;0.20;0.20;;;;;;;20.12;52.57;101406.38;5121840;27;20046;-44
2023/05/14 02:33:26;;;;;;;0.20;0.20;;;;;;;20.12;52.51;101407.22;5115989;28;20054;-43
2023/05/14 02:35:53;;;;;;;0.20;0.20;;;;;;;20.12;52.45;101396.16;5116338;27;20242;-44
2023/05/14 02:38:19;;;;;;;0.20;0.20;;;;;;;20.12;52.34;101404.47;5134777;27;20460;-43
2023/05/14 02:40:44;;;;;;;0.20;0.20;;;;;;;20.12;52.40;101393.41;5132682;27;20051;-44
2023/05/14 02:43:10;;;;;;;0.20;0.20;;;;;;;20.12;52.22;101387.00;5140771;27;20386;-46
2023/05/14 02:45:36;;;;;;;0.20;0.20;;;;;;;20.12;52.31;101389.78;5140704;27;20448;-44
2023/05/14 02:48:02;;;;;;;0.20;0.20;;;;;;;20.12;52.48;101395.31;5136391;27;20055;-44
2023/05/14 02:50:27;;;;;;;0.20;0.20;;;;;;;20.12;52.29;101393.41;5126860;27;20062;-44
2023/05/14 02:52:53;;;;;;;0.20;0.20;;;;;;;20.12;52.45;101404.47;5127813;27;20046;-45
2023/05/14 02:55:19;;;;;;;0.20;0.20;;;;;;;20.12;52.32;101396.16;5136261;27;20111;-44
2023/05/14 02:57:45;;;;;;;0.20;0.20;;;;;;;20.12;52.52;101396.16;5135628;27;20061;-43
2023/05/14 03:00:11;;;;;;;0.20;0.20;;;;;;;20.12;52.48;101404.47;5129125;27;20047;-43
2023/05/14 03:02:37;;;;;;;0.30;0.30;;;;;;;20.12;52.47;101406.38;5115394;27;20437;-44
2023/05/14 03:05:04;;;;;;;0.20;0.20;;;;;;;20.12;52.47;101407.22;5115391;27;20039;-44
2023/05/14 03:07:29;;;;;;;0.20;0.20;;;;;;;20.12;52.45;101401.69;5124231;27;20107;-43
2023/05/14 03:09:55;;;;;;;0.20;0.20;;;;;;;20.11;52.66;101394.47;5136109;27;20050;-45
2023/05/14 03:12:21;;;;;;;0.20;0.20;;;;;;;20.12;52.46;101396.16;5136311;27;20499;-43
2023/05/14 03:14:46;;;;;;;0.20;0.20;;;;;;;20.12;52.84;101404.47;5135697;27;20053;-43
2023/05/14 03:17:12;;;;;;;0.20;0.20;;;;;;;20.12;52.58;101400.84;5135362;27;20045;-44
2023/05/14 03:19:38;;;;;;;0.20;0.20;;;;;;;20.13;52.34;101405.28;5132657;27;20455;-44
2023/05/14 03:22:04;;;;;;;0.20;0.20;;;;;;;20.12;52.34;101396.16;5115726;28;20043;-43
2023/05/14 03:24:30;;;;;;;0.20;0.20;;;;;;;20.12;52.40;101393.41;5115283;27;20130;-43
2023/05/14 03:26:55;;;;;;;0.20;0.20;;;;;;;20.12;52.54;101396.16;5118553;27;20047;-43
2023/05/14 03:29:21;;;;;;;0.20;0.20;;;;;;;20.12;52.48;101392.53;5134752;27;20039;-43
2023/05/14 03:31:47;;;;;;;0.20;0.20;;;;;;;20.12;52.45;101396.16;5114842;27;20492;-44
2023/05/14 03:34:12;;;;;;;0.20;0.20;;;;;;;20.12;52.41;101395.31;5114620;27;20121;-43
2023/05/14 03:36:38;;;;;;;0.25;0.25;;;;;;;20.12;52.58;101400.84;5115249;27;20050;-43
2023/05/14 03:39:05;;;;;;;0.20;0.20;;;;;;;20.12;52.56;101393.41;5151779;27;20065;-43
2023/05/14 03:41:31;;;;;;;0.20;0.20;;;;;;;20.11;52.20;101400.00;5117217;27;20100;-44
2023/05/14 03:43:57;;;;;;;0.20;0.20;;;;;;;20.12;52.22;101400.84;5114639;27;20122;-46
2023/05/14 03:46:23;;;;;;;0.20;0.20;;;;;;;20.11;52.32;101390.88;5119046;27;20319;-42
2023/05/14 03:48:48;;;;;;;0.20;0.20;;;;;;;20.12;52.63;101403.59;5134504;27;20103;-43
2023/05/14 03:51:14;;;;;;;0.20;0.20;;;;;;;20.12;52.18;101395.31;5134592;27;20051;-43
2023/05/14 03:53:40;;;;;;;0.20;0.20;;;;;;;20.12;52.48;101400.84;5135120;27;20173;-46
2023/05/14 03:56:06;;;;;;;0.20;0.20;;;;;;;20.12;52.21;101401.69;5133687;27;20050;-43
2023/05/14 03:58:32;;;;;;;0.20;0.20;;;;;;;20.12;52.46;101401.69;5134203;27;20058;-44
2023/05/14 04:00:57;;;;;;;0.20;0.20;;;;;;;20.11;52.55;101391.72;5134102;27;20628;-43
2023/05/14 04:03:23;;;;;;;0.20;0.20;;;;;;;20.11;52.58;101394.47;5134105;27;20046;-43
2023/05/14 04:05:49;;;;;;;0.20;0.20;;;;;;;20.12;52.39;101401.69;5134383;27;20487;-43
2023/05/14 04:08:15;;;;;;;0.20;0.20;;;;;;;20.11;52.48;101386.19;5132898;27;20147;-45
2023/05/14 04:10:41;;;;;;;0.20;0.20;;;;;;;20.11;52.20;101388.94;5134534;27;20137;-43
2023/05/14 04:13:07;;;;;;;0.22;0.22;;;;;;;20.11;52.35;101393.66;5133581;27;20042;-44
2023/05/14 04:15:34;;;;;;;0.30;0.30;;;;;;;20.11;52.61;101386.19;5134362;27;20106;-47
2023/05/14 04:18:00;;;;;;;0.20;0.20;;;;;;;20.12;52.70;101389.78;5132732;27;20494;-44
2023/05/14 04:20:26;;;;;;;0.20;0.20;;;;;;;20.11;52.43;101386.19;5134451;27;20043;-42
2023/05/14 04:22:52;;;;;;;0.20;0.20;;;;;;;20.11;52.35;101383.41;5134626;27;20056;-45
2023/05/14 04:25:18;;;;;;;0.20;0.20;;;;;;;20.12;52.37;101387.00;5132881;27;20043;-44
2023/05/14 04:27:44;;;;;;;0.20;0.20;;;;;;;20.11;52.40;101385.38;5132464;27;20053;-46
2023/05/14 04:30:10;;;;;;;0.20;0.20;;;;;;;20.12;52.12;101387.00;5133141;27;20550;-44
2023/05/14 04:32:36;;;;;;;0.20;0.20;;;;;;;20.11;52.26;101383.41;5134924;27;20045;-43
2023/05/14 04:35:03;;;;;;;0.20;0.20;;;;;;;20.10;52.77;101384.53;5133308;27;20145;-44
2023/05/14 04:37:29;;;;;;;0.20;0.20;;;;;;;20.11;52.49;101383.41;5126574;27;20053;-43
2023/05/14 04:39:55;;;;;;;0.20;0.20;;;;;;;20.12;52.31;101378.72;5134531;27;20076;-44
2023/05/14 04:42:21;;;;;;;0.20;0.20;;;;;;;20.12;52.32;101387.00;5135110;27;20095;-44
2023/05/14 04:44:47;;;;;;;0.20;0.20;;;;;;;20.11;52.30;101371.53;5135324;27;20140;-45
2023/05/14 04:47:13;;;;;;;0.20;0.20;;;;;;;20.11;52.37;101375.13;5132514;27;20057;-43
2023/05/14 04:49:38;;;;;;;0.20;0.20;;;;;;;20.11;52.50;101377.06;5130577;27;20054;-42
2023/05/14 04:52:05;;;;;;;0.30;0.30;;;;;;;20.11;52.31;101377.88;5113930;27;20058;-43
2023/05/14 04:54:31;;;;;;;0.30;0.30;;;;;;;20.12;52.43;101378.72;5112370;28;20418;-43
2023/05/14 04:56:56;;;;;;;0.20;0.20;;;;;;;20.11;52.75;101375.13;5128274;27;20482;-42
2023/05/14 04:59:22;;;;;;;0.20;0.20;;;;;;;20.12;52.31;101385.09;5134350;27;20054;-44
2023/05/14 05:01:48;;;;;;;0.20;0.20;;;;;;;20.12;52.42;101378.72;5134710;27;20398;-43
2023/05/14 05:04:13;;;;;;;0.20;0.20;;;;;;;20.12;52.47;101381.47;5134461;27;20258;-44
2023/05/14 05:06:39;;;;;;;0.20;0.20;;;;;;;20.12;52.25;101379.56;5134162;27;20448;-44
2023/05/14 05:09:05;;;;;;;0.30;0.30;;;;;;;20.13;52.92;101380.41;5133801;27;20046;-43
2023/05/14 05:11:31;;;;;;;0.20;0.20;;;;;;;20.13;52.82;101381.22;5134136;27;20639;-44
2023/05/14 05:13:56;;;;;;;0.20;0.20;;;;;;;20.13;52.74;101377.63;5134265;27;20180;-42
2023/05/14 05:16:22;;;;;;;0.20;0.20;;;;;;;20.12;52.39;101381.47;5133702;27;20039;-42
2023/05/14 05:18:48;;;;;;;0.20;0.20;;;;;;;20.12;52.68;101381.47;5134011;27;20112;-43
2023/05/14 05:21:13;;;;;;;0.20;0.20;;;;;;;20.11;52.33;101380.66;5116882;27;20095;-42
2023/05/14 05:23:39;;;;;;;0.20;0.20;;;;;;;20.12;52.47;101381.47;5113315;28;20446;-43
2023/05/14 05:26:05;;;;;;;0.20;0.20;;;;;;;20.12;52.48;101381.47;5113101;28;20046;-43
2023/05/14 05:28:30;;;;;;;0.20;0.20;;;;;;;20.11;52.33;101374.31;5126498;27;20042;-42
2023/05/14 05:30:56;;;;;;;0.20;0.20;;;;;;;20.11;52.53;101377.06;5119702;27;20168;-43
2023/05/14 05:33:22;;;;;;;0.30;0.30;;;;;;;20.11;52.39;101372.34;5113395;28;20039;-45
2023/05/14 05:35:48;;;;;;;0.20;0.20;;;;;;;20.10;52.35;101373.47;5112645;27;20384;-43
2023/05/14 05:38:17;;;;;;;0.20;0.20;;;;;;;20.11;52.36;101385.38;5123866;27;20871;-44
2023/05/14 05:40:42;;;;;;;0.20;0.20;;;;;;;20.11;52.45;101377.06;5121546;27;20047;-43
2023/05/14 05:43:08;;;;;;;0.20;0.20;;;;;;;20.10;52.42;101378.19;5113162;28;20088;-43
2023/05/14 05:45:34;;;;;;;0.20;0.20;;;;;;;20.12;52.51;101384.25;5112925;28;20044;-43
2023/05/14 05:47:59;;;;;;;0.20;0.20;;;;;;;20.11;52.62;101385.38;5121472;27;20039;-43
2023/05/14 05:50:25;;;;;;;0.20;0.20;;;;;;;20.11;52.77;101375.13;5131423;27;20413;-43
2023/05/14 05:52:51;;;;;;;0.20;0.20;;;;;;;20.11;52.16;101383.41;5133765;27;20200;-43
2023/05/14 05:55:18;;;;;;;0.20;0.20;;;;;;;20.11;52.01;101388.13;5114512;27;20047;-43
2023/05/14 05:57:43;;;;;;;0.20;0.20;;;;;;;20.10;52.56;101384.53;5133081;27;20270;-44
2023/05/14 06:00:12;;;;;;;0.20;0.20;;;;;;;20.11;52.76;101386.19;5133564;27;20139;-43
2023/05/14 06:02:40;;;;;;;0.20;0.20;;;;;;;20.11;52.73;101391.72;5134362;27;20043;-42
2023/05/14 06:05:07;;;;;;;0.20;0.20;;;;;;;20.13;52.86;101397.00;5135792;27;20549;-43
2023/05/14 06:07:33;;;;;;;0.30;0.30;;;;;;;20.11;52.36;101388.13;5136690;27;20051;-44
2023/05/14 06:09:58;;;;;;;0.20;0.20;;;;;;;20.11;52.57;101388.94;5118150;27;20421;-44
2023/05/14 06:12:24;;;;;;;0.20;0.20;;;;;;;20.12;52.49;101400.84;5135770;27;20054;-45
2023/05/14 06:14:50;;;;;;;0.20;0.20;;;;;;;20.11;52.52;101393.66;5137119;27;20089;-43
2023/05/14 06:17:16;;;;;;;0.22;0.22;;;;;;;20.11;52.66;101385.38;5135687;27;20483;-43
2023/05/14 06:19:41;;;;;;;0.20;0.20;;;;;;;20.10;52.50;101390.06;5137039;27;20051;-43
2023/05/14 06:22:07;;;;;;;0.20;0.20;;;;;;;20.10;52.56;101392.84;5137017;27;20046;-43
2023/05/14 06:24:33;;;;;;;0.20;0.20;;;;;;;20.12;52.52;101395.31;5136682;27;20514;-43
2023/05/14 06:26:59;;;;;;;0.20;0.20;;;;;;;20.10;52.49;101397.53;5136168;27;20038;-44
2023/05/14 06:29:25;;;;;;;0.20;0.20;;;;;;;20.11;52.21;101405.53;5136484;27;20098;-43
2023/05/14 06:31:51;;;;;;;0.20;0.20;;;;;;;20.10;52.32;101401.13;5136998;27;20042;-44
2023/05/14 06:34:16;;;;;;;0.20;0.20;;;;;;;20.11;52.56;101402.78;5135213;27;20054;-44
2023/05/14 06:36:42;;;;;;;0.20;0.20;;;;;;;20.11;52.21;101407.47;5123670;27;20043;-45
2023/05/14 06:39:08;;;;;;;0.20;0.20;;;;;;;20.10;52.41;101401.13;5132686;27;20336;-43
2023/05/14 06:41:34;;;;;;;0.20;0.20;;;;;;;20.11;52.40;101407.47;5136568;27;20502;-43
2023/05/14 06:44:00;;;;;;;0.30;0.30;;;;;;;20.11;52.27;101393.66;5136467;27;20042;-42
2023/05/14 06:46:25;;;;;;;0.20;0.20;;;;;;;20.11;52.59;101399.19;5135491;27;20078;-43
2023/05/14 06:48:51;;;;;;;0.20;0.20;;;;;;;20.12;52.58;101400.84;5135542;27;20038;-43
2023/05/14 06:51:17;;;;;;;0.20;0.20;;;;;;;20.12;52.47;101387.00;5121946;27;20050;-44
2023/05/14 06:53:42;;;;;;;0.20;0.20;;;;;;;20.11;52.68;101391.72;5135793;27;20060;-44
2023/05/14 06:56:08;;;;;;;0.20;0.20;;;;;;;20.11;52.56;101388.94;5135397;27;20053;-42
2023/05/14 06:58:33;;;;;;;0.20;0.20;;;;;;;20.10;52.35;101398.34;5136156;27;20415;-43
2023/05/14 07:00:59;;;;;;;0.20;0.20;;;;;;;20.10;52.75;101384.53;5135997;27;20046;-44
2023/05/14 07:03:25;;;;;;;0.30;0.30;;;;;;;20.10;52.34;101383.72;5136145;27;20061;-45
2023/05/14 07:05:51;;;;;;;0.20;0.20;;;;;;;20.10;52.50;101390.06;5135491;27;20448;-43
2023/05/14 07:08:16;;;;;;;0.20;0.20;;;;;;;20.11;52.62;101388.13;5135292;27;20566;-43
2023/05/14 07:10:42;;;;;;;0.20;0.20;;;;;;;20.11;52.14;101382.59;5135891;27;20413;-43
2023/05/14 07:13:08;;;;;;;0.20;0.20;;;;;;;20.10;52.15;101389.25;5136250;27;20095;-42
2023/05/14 07:15:34;;;;;;;0.20;0.20;;;;;;;20.11;52.37;101386.19;5135379;27;20043;-43
2023/05/14 07:17:59;;;;;;;0.20;0.20;;;;;;;20.12;52.42;101387.00;5135230;27;20046;-44
2023/05/14 07:20:25;;;;;;;0.20;0.20;;;;;;;20.10;52.27;101392.84;5135904;27;20054;-44
2023/05/14 07:22:51;;;;;;;0.20;0.20;;;;;;;20.12;52.35;101387.00;5136309;27;20290;-43
2023/05/14 07:25:17;;;;;;;0.20;0.20;;;;;;;20.11;52.24;101388.94;5135582;27;20042;-45
2023/05/14 07:27:43;;;;;;;0.20;0.20;;;;;;;20.11;52.82;101390.88;5134998;27;20111;-44
2023/05/14 07:30:09;;;;;;;0.20;0.20;;;;;;;20.10;52.32;101389.25;5128235;27;20054;-45
2023/05/14 07:32:34;;;;;;;0.20;0.20;;;;;;;20.11;52.35;101388.13;5115495;27;20572;-43
2023/05/14 07:35:00;;;;;;;0.20;0.20;;;;;;;20.11;52.66;101386.19;5114639;27;20415;-44
2023/05/14 07:37:26;;;;;;;0.20;0.20;;;;;;;20.10;52.47;101390.06;5150195;27;20071;-45
2023/05/14 07:39:52;;;;;;;0.20;0.20;;;;;;;20.10;52.15;101392.84;5130259;27;20051;-43
2023/05/14 07:42:18;;;;;;;0.20;0.20;;;;;;;20.10;52.45;101381.78;5115491;27;20056;-44
2023/05/14 07:44:57;;;;;;;0.20;0.20;;;;;;;20.09;52.49;101382.88;5114815;27;20138;-43
2023/05/14 07:47:23;;;;;;;0.20;0.20;;;;;;;20.12;52.48;101390.63;5114261;28;20061;-44
2023/05/14 07:49:53;;;;;;;0.20;0.20;;;;;;;20.12;52.42;101387.88;5129459;27;20424;-43
2023/05/14 07:52:18;;;;;;;0.20;0.20;;;;;;;20.10;52.38;101398.34;5115219;27;20066;-43
2023/05/14 07:54:44;;;;;;;0.20;0.20;;;;;;;20.11;52.50;101386.19;5131663;27;20043;-43
2023/05/14 07:57:10;;;;;;;0.20;0.20;;;;;;;20.10;52.50;101398.34;5134547;27;20050;-43
2023/05/14 07:59:35;;;;;;;0.20;0.20;;;;;;;20.11;52.67;101393.66;5134670;27;20091;-42
2023/05/14 08:02:01;;;;;;;0.20;0.20;;;;;;;20.10;52.49;101389.25;5134790;27;20042;-43
2023/05/14 08:04:27;;;;;;;0.20;0.20;;;;;;;20.10;52.62;101384.53;5134952;27;20046;-42
2023/05/14 08:06:54;;;;;;;0.20;0.20;;;;;;;20.11;52.46;101388.94;5134699;27;20570;-42
2023/05/14 08:09:19;;;;;;;0.20;0.20;;;;;;;20.11;52.46;101391.72;5134475;27;20074;-43
2023/05/14 08:11:45;;;;;;;0.20;0.20;;;;;;;20.11;52.41;101388.13;5114364;27;20057;-42
2023/05/14 08:14:11;;;;;;;0.20;0.20;;;;;;;20.11;52.45;101393.66;5114659;28;20502;-42
2023/05/14 08:16:37;;;;;;;0.20;0.20;;;;;;;20.11;52.67;101388.13;5113287;28;20054;-42
2023/05/14 08:19:03;;;;;;;0.20;0.20;;;;;;;20.11;52.47;101390.88;5126133;27;20154;-43
2023/05/14 08:21:29;;;;;;;0.20;0.20;;;;;;;20.11;52.41;101390.88;5134362;27;20050;-43
2023/05/14 08:23:54;;;;;;;0.20;0.20;;;;;;;20.10;52.52;101390.06;5135398;27;20069;-43
2023/05/14 08:26:20;;;;;;;0.20;0.20;;;;;;;20.10;52.29;101397.53;5133085;27;20047;-42
2023/05/14 08:28:46;;;;;;;0.20;0.20;;;;;;;20.10;52.37;101386.47;5133777;27;20080;-42
2023/05/14 08:31:13;;;;;;;0.20;0.20;;;;;;;20.11;52.47;101388.13;5134240;27;20050;-42
2023/05/14 08:33:39;;;;;;;0.20;0.20;;;;;;;20.12;52.80;101385.09;5133577;27;20563;-42
2023/05/14 08:36:06;;;;;;;0.20;0.20;;;;;;;20.11;52.14;101382.59;5133504;27;20046;-44
2023/05/14 08:38:32;;;;;;;0.20;0.20;;;;;;;20.10;52.59;101380.94;5133850;27;20050;-43
2023/05/14 08:40:58;;;;;;;0.20;0.20;;;;;;;20.10;52.23;101378.19;5134048;27;20067;-43
2023/05/14 08:43:26;;;;;;;0.20;0.20;;;;;;;20.10;52.75;101381.78;5133223;27;20043;-42
2023/05/14 08:45:57;;;;;;;0.30;0.30;;;;;;;20.11;52.60;101380.66;5132396;27;20046;-42
2023/05/14 08:48:25;;;;;;;0.20;0.20;;;;;;;20.12;52.46;101373.19;5133759;27;20054;-44
2023/05/14 08:50:51;;;;;;;0.20;0.20;;;;;;;20.11;52.44;101375.13;5132202;27;20083;-42
2023/05/14 08:53:17;;;;;;;0.20;0.20;;;;;;;20.11;52.49;101377.06;5134234;27;20047;-43
2023/05/14 08:55:43;;;;;;;0.20;0.20;;;;;;;20.10;52.06;101373.47;5132838;27;20053;-43
2023/05/14 08:58:09;;;;;;;0.20;0.20;;;;;;;20.11;52.53;101360.47;5133105;27;20050;-43
2023/05/14 09:00:34;;;;;;;0.20;0.20;;;;;;;20.11;52.67;101372.34;5133560;27;20091;-43
2023/05/14 09:03:00;;;;;;;0.20;0.20;;;;;;;20.11;52.50;101364.06;5133702;27;20047;-42
2023/05/14 09:05:26;;;;;;;0.20;0.20;;;;;;;20.11;52.34;101371.53;5133886;27;20502;-43
2023/05/14 09:07:52;;;;;;;0.20;0.20;;;;;;;20.10;52.40;101367.94;5133917;27;20054;-43
2023/05/14 09:10:18;;;;;;;0.20;0.20;;;;;;;20.10;52.13;101356.06;5133716;27;20102;-42
2023/05/14 09:12:43;;;;;;;0.20;0.20;;;;;;;20.10;52.52;101364.34;5134257;27;20465;-44
2023/05/14 09:15:09;;;;;;;0.30;0.30;;;;;;;20.11;52.32;101366.00;5133882;27;20322;-42
2023/05/14 09:17:35;;;;;;;0.20;0.20;;;;;;;20.11;52.49;101368.78;5133506;27;20117;-43
2023/05/14 09:20:01;;;;;;;0.20;0.20;;;;;;;20.10;52.53;101365.19;5127039;27;20046;-43
2023/05/14 09:22:30;;;;;;;0.20;0.20;;;;;;;20.11;52.21;101357.72;5112946;27;20455;-42
2023/05/14 09:25:11;;;;;;;0.20;0.20;;;;;;;20.11;52.41;101349.41;5095340;28;20043;-43
2023/05/14 09:27:38;;;;;;;0.20;0.20;;;;;;;20.10;52.61;101356.88;5113160;27;20206;-42
2023/05/14 09:30:07;;;;;;;0.20;0.20;;;;;;;20.10;52.24;101354.13;5124604;27;20047;-42
2023/05/14 09:32:49;;;;;;;0.20;0.20;;;;;;;20.09;52.21;101346.13;5113057;27;20446;-42
2023/05/14 09:35:21;;;;;;;0.20;0.20;;;;;;;20.09;52.37;101343.34;5137221;27;20038;-42
2023/05/14 09:37:49;;;;;;;0.20;0.20;;;;;;;20.10;52.61;101337.53;5155151;27;20314;-44
2023/05/14 09:40:16;;;;;;;0.20;0.20;;;;;;;20.08;52.16;101331.47;5135637;27;20047;-43
2023/05/14 09:42:41;;;;;;;0.20;0.20;;;;;;;20.09;51.93;101338.66;5135996;27;20070;-43
2023/05/14 09:45:08;;;;;;;0.20;0.20;;;;;;;20.10;52.76;101331.19;5135692;27;20054;-42
2023/05/14 09:47:35;;;;;;;0.20;0.20;;;;;;;20.12;52.59;101331.72;5135771;27;20238;-44
2023/05/14 09:50:01;;;;;;;0.20;0.20;;;;;;;20.11;52.36;101324.53;5134768;27;20280;-42
2023/05/14 09:52:26;;;;;;;0.20;0.20;;;;;;;20.11;52.70;101330.06;5137460;27;20077;-43
2023/05/14 09:54:52;;;;;;;0.20;0.20;;;;;;;20.11;52.58;101316.22;5137283;27;20057;-43
2023/05/14 09:57:19;;;;;;;0.20;0.20;;;;;;;20.11;52.29;101325.34;5135136;27;20381;-42
2023/05/14 09:59:44;;;;;;;0.30;0.30;;;;;;;20.11;52.61;101314.28;5135265;27;20050;-43
2023/05/14 10:02:16;;;;;;;0.20;0.20;;;;;;;20.10;52.14;101318.19;5135513;27;20156;-42
2023/05/14 10:04:42;;;;;;;0.20;0.20;;;;;;;20.10;52.78;101317.34;5136174;27;20902;-43
2023/05/14 10:07:08;;;;;;;0.20;0.20;;;;;;;20.11;52.61;101319.00;5136431;27;20095;-43
2023/05/14 10:09:34;;;;;;;0.20;0.20;;;;;;;20.10;52.79;101318.19;5136047;27;20281;-44
2023/05/14 10:12:00;;;;;;;0.20;0.20;;;;;;;20.09;52.42;101322.06;5137157;27;20177;-44
2023/05/14 10:14:32;;;;;;;0.20;0.20;;;;;;;20.09;52.10;101319.28;5136671;27;20074;-44
2023/05/14 10:17:00;;;;;;;0.20;0.20;;;;;;;20.10;52.36;101320.13;5136407;27;20047;-42
2023/05/14 10:19:26;;;;;;;0.10;0.10;;;;;;;20.09;52.32;101312.94;5136455;27;20214;-42
2023/05/14 10:21:55;;;;;;;0.20;0.20;;;;;;;20.08;52.10;101305.72;5136950;27;20142;-42
2023/05/14 10:24:21;;;;;;;0.20;0.20;;;;;;;20.11;52.61;101308.75;5135231;27;20067;-42
2023/05/14 10:26:47;;;;;;;0.20;0.20;;;;;;;20.10;52.57;101309.88;5117463;27;20053;-42
2023/05/14 10:29:13;;;;;;;0.20;0.20;;;;;;;20.11;52.77;101302.41;5136095;27;20042;-42
2023/05/14 10:31:54;;;;;;;0.20;0.20;;;;;;;20.11;52.29;101299.66;5114327;27;20048;-42
2023/05/14 10:34:41;;;;;;;0.20;0.20;;;;;;;20.10;52.57;101296.06;5119938;27;20035;-43
2023/05/14 10:37:10;;;;;;;0.20;0.20;;;;;;;20.10;52.71;101298.81;5119981;27;20081;-42
2023/05/14 10:39:49;;;;;;;0.20;0.20;;;;;;;20.09;52.27;101288.88;5133376;27;20434;-43
2023/05/14 10:42:19;;;;;;;0.30;0.30;;;;;;;20.09;52.62;101288.88;5115883;27;20054;-43
2023/05/14 10:44:54;;;;;;;0.20;0.20;;;;;;;20.10;52.66;101289.69;5115596;27;20343;-43
2023/05/14 10:47:20;;;;;;;0.20;0.20;;;;;;;20.11;52.82;101291.34;5115173;27;20175;-42
2023/05/14 10:49:50;;;;;;;0.20;0.20;;;;;;;20.10;52.67;101279.47;5124038;27;20464;-43
2023/05/14 10:52:18;;;;;;;0.20;0.20;;;;;;;20.11;52.53;101280.28;5115919;27;20039;-43
2023/05/14 10:54:53;;;;;;;0.20;0.20;;;;;;;20.10;52.38;101276.69;5115514;27;20039;-43
2023/05/14 10:57:21;;;;;;;0.22;0.22;;;;;;;20.10;52.61;101275.88;5114891;27;20047;-42
2023/05/14 10:59:48;;;;;;;0.10;0.10;;;;;;;20.10;52.60;101273.09;5125774;27;20070;-42
2023/05/14 11:02:20;;;;;;;0.20;0.20;;;;;;;20.10;52.49;101268.41;5116121;27;20044;-42
2023/05/14 11:05:08;;;;;;;0.20;0.20;;;;;;;20.11;52.65;101269.22;5115822;27;20039;-44
2023/05/14 11:07:36;;;;;;;0.20;0.20;;;;;;;20.11;52.69;101266.47;5128941;27;20308;-42
2023/05/14 11:10:04;;;;;;;0.20;0.20;;;;;;;20.10;52.48;101259.28;5128069;27;20096;-42
2023/05/14 11:12:30;;;;;;;0.20;0.20;;;;;;;20.10;52.44;101251.81;5115449;27;20484;-42
2023/05/14 11:14:58;;;;;;;0.20;0.20;;;;;;;20.09;52.31;101250.16;5096799;28;20062;-43
2023/05/14 11:17:25;;;;;;;0.20;0.20;;;;;;;20.10;52.79;101251.00;5113064;28;20465;-43
2023/05/14 11:19:50;;;;;;;0.20;0.20;;;;;;;20.10;52.49;101242.69;5123588;27;20099;-42
2023/05/14 11:22:16;;;;;;;0.20;0.20;;;;;;;20.10;52.68;101243.53;5115522;28;20051;-42
2023/05/14 11:24:42;;;;;;;0.22;0.22;;;;;;;20.11;52.60;101238.81;5115419;27;20727;-42
2023/05/14 11:27:08;;;;;;;0.20;0.20;;;;;;;20.10;52.50;101240.75;5114772;27;20047;-42